createdAt,value
2023-04-27T00:00:31.572Z,208.78
2023-04-27T00:01:31.669Z,212.67
2023-04-27T00:02:31.770Z,216.22
2023-04-27T00:03:31.900Z,216.09
2023-04-27T00:04:32.087Z,213.72
2023-04-27T00:05:31.963Z,205.86
2023-04-27T00:06:31.848Z,206.43
2023-04-27T00:07:31.899Z,209.25
2023-04-27T00:08:31.889Z,214.53
2023-04-27T00:09:31.949Z,216.73
2023-04-27T00:10:31.949Z,220.67
2023-04-27T00:11:31.985Z,222.92
2023-04-27T00:12:32.008Z,224.65
2023-04-27T00:13:31.973Z,227.03
2023-04-27T00:14:32.002Z,225.73
2023-04-27T00:15:32.003Z,228.50
2023-04-27T00:16:32.014Z,225.57
2023-04-27T00:17:32.021Z,223.08
2023-04-27T00:18:31.991Z,218.07
2023-04-27T00:19:32.001Z,204.44
2023-04-27T00:20:32.005Z,207.11
2023-04-27T00:21:32.037Z,208.49
2023-04-27T00:22:32.051Z,192.54
2023-04-27T00:23:32.049Z,184.09
2023-04-27T00:24:32.051Z,182.32
2023-04-27T00:25:32.102Z,185.56
2023-04-27T00:26:32.140Z,182.68
2023-04-27T00:27:32.401Z,178.12
2023-04-27T00:28:32.194Z,182.77
2023-04-27T00:29:32.197Z,180.82
2023-04-27T00:30:32.240Z,181.22
2023-04-27T00:31:32.302Z,183.22
2023-04-27T00:32:32.351Z,179.19
2023-04-27T00:33:32.296Z,179.19
2023-04-27T00:34:32.335Z,173.48
2023-04-27T00:35:32.413Z,171.88
2023-04-27T00:36:32.427Z,170.08
2023-04-27T00:37:32.432Z,166.54
2023-04-27T00:38:32.433Z,160.03
2023-04-27T00:39:32.468Z,154.20
2023-04-27T00:40:32.443Z,153.06
2023-04-27T00:41:32.535Z,152.07
2023-04-27T00:42:32.559Z,154.22
2023-04-27T00:43:32.592Z,155.77
2023-04-27T00:44:32.618Z,164.13
2023-04-27T00:45:32.717Z,165.85
2023-04-27T00:46:32.762Z,169.85
2023-04-27T00:47:32.793Z,162.13
2023-04-27T00:48:32.699Z,157.08
2023-04-27T00:49:32.720Z,156.48
2023-04-27T00:50:32.743Z,156.39
2023-04-27T00:51:32.769Z,155.65
2023-04-27T00:52:32.873Z,158.18
2023-04-27T00:53:32.891Z,157.35
2023-04-27T00:54:32.888Z,162.02
2023-04-27T00:55:32.937Z,164.13
2023-04-27T00:56:32.975Z,172.28
2023-04-27T00:57:33.011Z,170.92
2023-04-27T00:58:33.069Z,164.44
2023-04-27T00:59:33.045Z,161.10
2023-04-27T01:00:33.141Z,162.07
2023-04-27T01:01:33.261Z,167.31
2023-04-27T01:02:33.392Z,175.86
2023-04-27T01:03:33.361Z,185.64
2023-04-27T01:04:33.482Z,186.52
2023-04-27T01:05:33.329Z,179.15
2023-04-27T01:06:33.482Z,177.32
2023-04-27T01:07:33.393Z,184.23
2023-04-27T01:08:33.411Z,186.39
2023-04-27T01:09:33.430Z,184.72
2023-04-27T01:10:33.437Z,181.65
2023-04-27T01:11:33.477Z,182.09
2023-04-27T01:12:33.525Z,180.68
2023-04-27T01:13:33.542Z,180.31
2023-04-27T01:14:33.531Z,178.00
2023-04-27T01:15:33.550Z,176.32
2023-04-27T01:16:33.546Z,174.57
2023-04-27T01:17:33.542Z,175.23
2023-04-27T01:18:33.526Z,176.02
2023-04-27T01:19:33.559Z,183.99
2023-04-27T01:20:33.544Z,187.92
2023-04-27T01:21:33.586Z,184.82
2023-04-27T01:22:33.592Z,187.54
2023-04-27T01:23:33.603Z,190.63
2023-04-27T01:24:33.653Z,194.67
2023-04-27T01:25:33.615Z,191.98
2023-04-27T01:26:33.612Z,192.22
2023-04-27T01:27:33.627Z,196.26
2023-04-27T01:28:33.626Z,200.58
2023-04-27T01:29:33.650Z,207.90
2023-04-27T01:30:33.714Z,211.46
2023-04-27T01:31:33.744Z,208.81
2023-04-27T01:32:33.798Z,209.84
2023-04-27T01:33:33.795Z,214.12
2023-04-27T01:34:33.844Z,218.33
2023-04-27T01:35:33.932Z,221.62
2023-04-27T01:36:33.863Z,220.88
2023-04-27T01:37:33.935Z,218.66
2023-04-27T01:38:33.909Z,211.50
2023-04-27T01:39:33.982Z,205.12
2023-04-27T01:40:34.002Z,204.52
2023-04-27T01:41:34.050Z,205.40
2023-04-27T01:42:34.112Z,204.78
2023-04-27T01:43:34.160Z,195.39
2023-04-27T01:44:34.218Z,193.37
2023-04-27T01:45:34.276Z,192.58
2023-04-27T01:46:34.417Z,190.00
2023-04-27T01:47:34.452Z,188.94
2023-04-27T01:48:34.584Z,188.93
2023-04-27T01:49:34.492Z,180.00
2023-04-27T01:50:34.613Z,173.09
2023-04-27T01:51:34.667Z,174.47
2023-04-27T01:52:34.768Z,176.08
2023-04-27T01:53:34.802Z,185.13
2023-04-27T01:54:34.840Z,180.98
2023-04-27T01:55:34.906Z,171.82
2023-04-27T01:56:34.965Z,166.51
2023-04-27T01:57:35.010Z,166.03
2023-04-27T01:58:35.019Z,168.54
2023-04-27T01:59:35.080Z,176.83
2023-04-27T02:00:35.102Z,183.95
2023-04-27T02:01:35.232Z,184.75
2023-04-27T02:02:35.355Z,184.05
2023-04-27T02:03:35.411Z,179.40
2023-04-27T02:04:35.335Z,174.26
2023-04-27T02:05:35.299Z,171.80
2023-04-27T02:06:35.293Z,174.15
2023-04-27T02:07:35.305Z,181.01
2023-04-27T02:08:35.330Z,180.26
2023-04-27T02:09:35.355Z,174.21
2023-04-27T02:10:35.334Z,173.62
2023-04-27T02:11:35.360Z,171.47
2023-04-27T02:12:35.385Z,173.49
2023-04-27T02:13:35.448Z,178.95
2023-04-27T02:14:35.501Z,178.10
2023-04-27T02:15:35.554Z,184.16
2023-04-27T02:16:35.725Z,186.13
2023-04-27T02:17:35.637Z,181.05
2023-04-27T02:18:35.691Z,181.79
2023-04-27T02:19:35.746Z,185.35
2023-04-27T02:20:35.749Z,195.40
2023-04-27T02:21:35.740Z,199.81
2023-04-27T02:22:35.758Z,196.16
2023-04-27T02:23:35.771Z,193.84
2023-04-27T02:24:35.779Z,194.31
2023-04-27T02:25:35.777Z,200.73
2023-04-27T02:26:35.797Z,198.36
2023-04-27T02:27:35.804Z,200.52
2023-04-27T02:28:35.853Z,203.75
2023-04-27T02:29:35.873Z,204.72
2023-04-27T02:30:35.878Z,206.18
2023-04-27T02:31:35.980Z,209.03
2023-04-27T02:32:35.976Z,212.13
2023-04-27T02:33:35.989Z,214.28
2023-04-27T02:34:36.032Z,214.32
2023-04-27T02:35:36.067Z,210.01
2023-04-27T02:36:36.075Z,205.04
2023-04-27T02:37:36.134Z,201.69
2023-04-27T02:38:36.122Z,202.24
2023-04-27T02:39:36.182Z,202.70
2023-04-27T02:40:36.188Z,219.74
2023-04-27T02:41:36.187Z,214.62
2023-04-27T02:42:36.292Z,209.01
2023-04-27T02:43:36.199Z,218.20
2023-04-27T02:44:36.204Z,217.86
2023-04-27T02:45:36.219Z,213.53
2023-04-27T02:46:36.320Z,206.01
2023-04-27T02:47:36.342Z,201.61
2023-04-27T02:48:36.248Z,199.06
2023-04-27T02:49:38.035Z,202.98
2023-04-27T02:50:36.258Z,209.35
2023-04-27T02:51:36.267Z,215.46
2023-04-27T02:52:36.328Z,218.65
2023-04-27T02:53:36.277Z,215.04
2023-04-27T02:54:36.321Z,217.81
2023-04-27T02:55:36.334Z,220.47
2023-04-27T02:56:36.286Z,223.54
2023-04-27T02:57:36.316Z,226.23
2023-04-27T02:58:36.361Z,225.72
2023-04-27T02:59:36.363Z,224.82
2023-04-27T03:00:36.441Z,225.56
2023-04-27T03:01:36.576Z,225.08
2023-04-27T03:02:36.755Z,225.92
2023-04-27T03:03:36.735Z,234.97
2023-04-27T03:04:36.766Z,237.79
2023-04-27T03:05:36.635Z,232.83
2023-04-27T03:06:36.663Z,222.19
2023-04-27T03:07:36.676Z,220.11
2023-04-27T03:08:36.623Z,216.85
2023-04-27T03:09:36.645Z,219.47
2023-04-27T03:10:36.648Z,221.01
2023-04-27T03:11:37.423Z,218.63
2023-04-27T03:12:36.738Z,219.11
2023-04-27T03:13:36.735Z,225.44
2023-04-27T03:14:36.737Z,229.93
2023-04-27T03:15:36.728Z,242.25
2023-04-27T03:16:36.783Z,243.48
2023-04-27T03:17:36.874Z,234.90
2023-04-27T03:18:36.794Z,228.72
2023-04-27T03:19:36.778Z,228.73
2023-04-27T03:20:36.775Z,219.29
2023-04-27T03:21:36.778Z,210.47
2023-04-27T03:22:36.838Z,207.74
2023-04-27T03:23:36.782Z,205.03
2023-04-27T03:24:36.795Z,205.39
2023-04-27T03:25:36.824Z,205.42
2023-04-27T03:26:36.815Z,206.39
2023-04-27T03:27:36.816Z,211.67
2023-04-27T03:28:36.868Z,211.62
2023-04-27T03:29:36.943Z,216.81
2023-04-27T03:30:36.989Z,216.57
2023-04-27T03:31:37.074Z,213.94
2023-04-27T03:32:37.568Z,220.66
2023-04-27T03:33:37.122Z,222.36
2023-04-27T03:34:37.114Z,217.32
2023-04-27T03:35:37.133Z,219.50
2023-04-27T03:36:37.088Z,226.39
2023-04-27T03:37:37.144Z,227.95
2023-04-27T03:38:37.111Z,227.44
2023-04-27T03:39:37.100Z,230.23
2023-04-27T03:40:37.119Z,239.34
2023-04-27T03:41:37.120Z,242.31
2023-04-27T03:42:37.143Z,245.04
2023-04-27T03:43:37.129Z,249.87
2023-04-27T03:44:37.130Z,249.78
2023-04-27T03:45:37.236Z,249.75
2023-04-27T03:46:37.150Z,250.00
2023-04-27T03:47:37.179Z,250.00
2023-04-27T03:48:37.132Z,250.00
2023-04-27T03:49:37.158Z,250.61
2023-04-27T03:50:37.193Z,250.22
2023-04-27T03:51:37.123Z,249.59
2023-04-27T03:52:37.150Z,249.80
2023-04-27T03:53:37.140Z,245.09
2023-04-27T03:54:37.213Z,242.11
2023-04-27T03:55:37.207Z,238.94
2023-04-27T03:56:37.205Z,237.05
2023-04-27T03:57:37.286Z,234.27
2023-04-27T03:58:37.284Z,233.17
2023-04-27T03:59:37.287Z,237.28
2023-04-27T04:00:37.321Z,238.46
2023-04-27T04:01:37.463Z,241.78
2023-04-27T04:02:37.468Z,239.33
2023-04-27T04:03:37.504Z,241.08
2023-04-27T04:04:37.579Z,244.66
2023-04-27T04:05:37.485Z,241.14
2023-04-27T04:06:37.546Z,241.75
2023-04-27T04:07:37.616Z,246.02
2023-04-27T04:08:37.610Z,248.89
2023-04-27T04:09:45.345Z,247.00
2023-04-27T04:10:37.668Z,247.11
2023-04-27T04:11:37.663Z,247.67
2023-04-27T04:12:37.716Z,248.90
2023-04-27T04:13:37.639Z,247.62
2023-04-27T04:14:37.646Z,247.71
2023-04-27T04:15:37.690Z,239.44
2023-04-27T04:16:37.668Z,237.82
2023-04-27T04:17:37.693Z,237.81
2023-04-27T04:18:37.655Z,237.16
2023-04-27T04:19:37.631Z,239.23
2023-04-27T04:20:37.618Z,247.08
2023-04-27T04:21:37.578Z,250.06
2023-04-27T04:22:37.650Z,250.00
2023-04-27T04:23:37.596Z,251.11
2023-04-27T04:24:37.562Z,251.69
2023-04-27T04:25:37.599Z,249.24
2023-04-27T04:26:37.591Z,251.76
2023-04-27T04:27:37.573Z,252.86
2023-04-27T04:28:37.590Z,252.52
2023-04-27T04:29:37.567Z,250.90
2023-04-27T04:30:37.639Z,248.89
2023-04-27T04:31:37.700Z,249.12
2023-04-27T04:32:37.845Z,250.76
2023-04-27T04:33:37.727Z,245.91
2023-04-27T04:34:37.745Z,245.82
2023-04-27T04:35:37.807Z,250.24
2023-04-27T04:36:37.801Z,248.45
2023-04-27T04:37:37.992Z,251.41
2023-04-27T04:38:37.945Z,249.32
2023-04-27T04:39:37.989Z,244.16
2023-04-27T04:40:38.119Z,243.10
2023-04-27T04:41:38.054Z,241.62
2023-04-27T04:42:38.179Z,243.54
2023-04-27T04:43:38.170Z,244.93
2023-04-27T04:44:38.113Z,239.06
2023-04-27T04:45:38.148Z,245.48
2023-04-27T04:46:38.216Z,247.57
2023-04-27T04:47:38.235Z,249.85
2023-04-27T04:48:38.277Z,249.93
2023-04-27T04:49:38.333Z,250.84
2023-04-27T04:50:38.382Z,252.28
2023-04-27T04:51:38.450Z,250.70
2023-04-27T04:52:38.489Z,250.86
2023-04-27T04:53:38.522Z,250.00
2023-04-27T04:54:38.598Z,246.17
2023-04-27T04:55:38.617Z,245.54
2023-04-27T04:56:38.626Z,241.78
2023-04-27T04:57:38.752Z,237.22
2023-04-27T04:59:58.442Z,25.00
2023-04-27T05:02:25.743Z,25.00
2023-04-27T05:03:17.996Z,25.00
2023-04-27T05:04:18.016Z,25.00
2023-04-27T05:05:17.860Z,25.00
2023-04-27T05:06:17.868Z,25.00
2023-04-27T05:07:20.871Z,25.00
2023-04-27T05:08:18.790Z,25.00
2023-04-27T05:09:17.780Z,25.00
2023-04-27T05:10:17.805Z,25.00
2023-04-27T05:11:17.796Z,25.00
2023-04-27T05:12:17.853Z,25.00
2023-04-27T05:13:17.811Z,49.94
2023-04-27T05:14:17.835Z,58.89
2023-04-27T05:15:17.783Z,8.31
2023-04-27T05:16:17.849Z,25.11
2023-04-27T05:17:17.783Z,64.65
2023-04-27T05:18:17.761Z,149.72
2023-04-27T05:19:17.749Z,188.18
2023-04-27T05:20:17.845Z,208.33
2023-04-27T05:21:17.791Z,147.82
2023-04-27T05:22:17.868Z,161.51
2023-04-27T05:23:17.920Z,184.21
2023-04-27T05:24:17.933Z,143.52
2023-04-27T05:25:18.012Z,115.28
2023-04-27T05:26:18.021Z,127.07
2023-04-27T05:27:18.020Z,171.15
2023-04-27T05:28:18.056Z,216.16
2023-04-27T05:29:18.125Z,197.19
2023-04-27T05:30:18.019Z,215.92
2023-04-27T05:31:18.091Z,217.38
2023-04-27T05:32:18.068Z,249.06
2023-04-27T05:33:18.133Z,248.33
2023-04-27T05:34:18.028Z,222.29
2023-04-27T05:35:18.090Z,205.98
2023-04-27T05:36:18.066Z,153.32
2023-04-27T05:37:18.132Z,153.42
2023-04-27T05:38:18.605Z,165.67
2023-04-27T05:39:18.175Z,204.87
2023-04-27T05:40:18.204Z,254.64
2023-04-27T05:41:18.202Z,273.64
2023-04-27T05:42:18.280Z,259.22
2023-04-27T05:43:18.624Z,261.46
2023-04-27T05:44:18.324Z,250.27
2023-04-27T05:46:45.605Z,25.00
2023-04-27T05:47:38.104Z,25.00
2023-04-27T05:48:37.941Z,25.00
2023-04-27T05:49:37.964Z,25.00
2023-04-27T05:50:37.992Z,25.00
2023-04-27T05:51:37.923Z,25.00
2023-04-27T05:52:38.385Z,25.00
2023-04-27T05:53:38.022Z,14.73
2023-04-27T05:54:37.927Z,14.25
2023-04-27T05:55:37.913Z,0.00
2023-04-27T05:56:37.941Z,0.00
2023-04-27T05:57:38.077Z,0.00
2023-04-27T05:58:38.181Z,0.00
2023-04-27T05:59:37.883Z,0.00
2023-04-27T06:00:37.943Z,0.00
2023-04-27T06:01:37.898Z,33.07
2023-04-27T06:02:38.137Z,25.23
2023-04-27T06:03:38.372Z,44.45
2023-04-27T06:04:37.986Z,35.03
2023-04-27T06:05:38.043Z,34.80
2023-04-27T06:06:37.923Z,38.20
2023-04-27T06:07:38.012Z,54.69
2023-04-27T06:08:38.010Z,27.14
2023-04-27T06:09:38.064Z,60.51
2023-04-27T06:10:38.026Z,37.42
2023-04-27T06:11:38.108Z,25.00
2023-04-27T06:12:38.254Z,22.90
2023-04-27T06:13:38.219Z,40.12
2023-04-27T06:14:38.194Z,90.17
2023-04-27T06:15:38.308Z,121.68
2023-04-27T06:16:38.192Z,143.77
2023-04-27T06:17:38.314Z,141.76
2023-04-27T06:18:38.300Z,164.86
2023-04-27T06:19:38.353Z,190.84
2023-04-27T06:20:38.345Z,205.37
2023-04-27T06:21:38.410Z,217.29
2023-04-27T06:22:38.405Z,191.38
2023-04-27T06:23:38.945Z,186.43
2023-04-27T06:24:38.442Z,159.90
2023-04-27T06:25:38.422Z,155.12
2023-04-27T06:26:38.490Z,161.75
2023-04-27T06:27:39.246Z,150.15
2023-04-27T06:28:38.639Z,132.71
2023-04-27T06:29:38.682Z,141.44
2023-04-27T06:30:39.636Z,137.35
2023-04-27T06:31:38.817Z,127.66
2023-04-27T06:32:38.709Z,147.43
2023-04-27T06:33:39.206Z,166.26
2023-04-27T06:34:39.219Z,164.91
2023-04-27T06:35:38.734Z,189.74
2023-04-27T06:36:38.714Z,201.89
2023-04-27T06:37:38.840Z,202.95
2023-04-27T06:38:39.365Z,188.27
2023-04-27T06:39:38.845Z,119.86
2023-04-27T06:40:38.733Z,119.50
2023-04-27T06:41:38.860Z,135.37
2023-04-27T06:42:38.787Z,116.87
2023-04-27T06:43:39.308Z,124.64
2023-04-27T06:44:39.033Z,143.01
2023-04-27T06:45:38.896Z,158.50
2023-04-27T06:46:39.268Z,179.24
2023-04-27T06:47:39.229Z,190.42
2023-04-27T06:48:38.990Z,188.77
2023-04-27T06:49:38.992Z,158.95
2023-04-27T06:50:39.011Z,21.98
2023-04-27T06:51:39.063Z,34.87
2023-04-27T06:52:39.499Z,68.25
2023-04-27T06:53:39.214Z,116.30
2023-04-27T06:54:39.154Z,162.75
2023-04-27T06:55:40.419Z,184.18
2023-04-27T06:56:39.154Z,165.01
2023-04-27T06:57:39.166Z,151.92
2023-04-27T06:58:39.186Z,154.83
2023-04-27T06:59:39.122Z,181.71
2023-04-27T07:00:39.300Z,173.23
2023-04-27T07:01:39.238Z,169.34
2023-04-27T07:02:39.164Z,197.64
2023-04-27T07:03:40.000Z,202.69
2023-04-27T07:04:39.514Z,228.37
2023-04-27T07:05:39.974Z,234.82
2023-04-27T07:06:39.736Z,218.51
2023-04-27T07:07:39.054Z,151.54
2023-04-27T07:08:39.580Z,79.48
2023-04-27T07:09:48.001Z,58.24
2023-04-27T07:10:39.080Z,50.72
2023-04-27T07:11:39.390Z,0.00
2023-04-27T07:12:39.048Z,0.00
2023-04-27T07:13:39.241Z,0.00
2023-04-27T07:14:39.817Z,0.00
2023-04-27T07:15:39.091Z,0.00
2023-04-27T07:16:39.095Z,22.80
2023-04-27T07:17:39.050Z,92.69
2023-04-27T07:18:39.269Z,90.20
2023-04-27T07:19:38.997Z,0.00
2023-04-27T07:20:38.987Z,0.00
2023-04-27T07:21:38.938Z,40.21
2023-04-27T07:22:38.987Z,79.19
2023-04-27T07:23:39.009Z,108.63
2023-04-27T07:24:39.390Z,101.40
2023-04-27T07:25:38.913Z,74.42
2023-04-27T07:26:39.265Z,17.69
2023-04-27T07:27:38.885Z,18.42
2023-04-27T07:28:39.356Z,19.28
2023-04-27T07:29:38.950Z,31.55
2023-04-27T07:30:38.906Z,0.00
2023-04-27T07:31:39.451Z,0.00
2023-04-27T07:32:38.953Z,0.00
2023-04-27T07:33:39.724Z,0.00
2023-04-27T07:34:52.042Z,0.00
2023-04-27T07:35:39.883Z,0.00
2023-04-27T07:36:38.877Z,0.00
2023-04-27T07:37:38.879Z,0.00
2023-04-27T07:38:38.981Z,0.00
2023-04-27T07:39:39.109Z,0.00
2023-04-27T07:40:39.310Z,0.00
2023-04-27T07:41:38.918Z,50.62
2023-04-27T07:42:38.913Z,58.83
2023-04-27T07:43:38.838Z,0.00
2023-04-27T07:44:38.892Z,0.00
2023-04-27T07:45:38.900Z,0.00
2023-04-27T07:46:38.757Z,0.00
2023-04-27T07:47:38.830Z,13.52
2023-04-27T07:48:38.869Z,81.29
2023-04-27T07:49:39.192Z,131.67
2023-04-27T07:50:38.778Z,184.22
2023-04-27T07:51:38.731Z,185.36
2023-04-27T07:52:39.151Z,194.66
2023-04-27T07:53:38.753Z,233.85
2023-04-27T07:54:38.807Z,248.55
2023-04-27T07:55:38.770Z,248.14
2023-04-27T07:56:38.764Z,240.24
2023-04-27T07:57:38.808Z,224.59
2023-04-27T07:58:38.818Z,210.12
2023-04-27T07:59:38.822Z,156.80
2023-04-27T08:00:38.687Z,157.75
2023-04-27T08:01:38.733Z,104.81
2023-04-27T08:02:39.018Z,97.22
2023-04-27T08:03:39.059Z,74.18
2023-04-27T08:04:39.214Z,25.00
2023-04-27T08:05:39.221Z,71.19
2023-04-27T08:06:39.311Z,80.21
2023-04-27T08:07:44.140Z,51.62
2023-04-27T08:08:40.123Z,45.31
2023-04-27T08:09:39.211Z,53.96
2023-04-27T08:10:39.004Z,3.02
2023-04-27T08:11:39.008Z,0.00
2023-04-27T08:12:39.043Z,0.00
2023-04-27T08:13:39.871Z,0.00
2023-04-27T08:14:39.028Z,0.00
2023-04-27T08:15:39.028Z,0.00
2023-04-27T08:16:46.650Z,0.00
2023-04-27T08:17:39.111Z,0.45
2023-04-27T08:18:38.956Z,0.00
2023-04-27T08:19:39.045Z,0.00
2023-04-27T08:20:38.950Z,0.00
2023-04-27T08:21:38.961Z,0.00
2023-04-27T08:22:38.889Z,0.00
2023-04-27T08:23:39.605Z,0.00
2023-04-27T08:24:38.979Z,0.00
2023-04-27T08:25:39.580Z,0.00
2023-04-27T08:26:38.921Z,0.00
2023-04-27T08:27:38.912Z,0.00
2023-04-27T08:28:38.952Z,0.00
2023-04-27T08:29:38.929Z,0.00
2023-04-27T08:30:38.929Z,0.00
2023-04-27T08:31:38.964Z,0.00
2023-04-27T08:32:38.939Z,13.96
2023-04-27T08:33:38.987Z,25.58
2023-04-27T08:34:39.167Z,38.85
2023-04-27T08:35:38.860Z,53.29
2023-04-27T08:36:38.906Z,39.95
2023-04-27T08:37:38.876Z,24.50
2023-04-27T08:38:38.872Z,12.34
2023-04-27T08:39:39.531Z,25.07
2023-04-27T08:40:39.007Z,18.40
2023-04-27T08:41:39.016Z,14.33
2023-04-27T08:42:39.014Z,25.73
2023-04-27T08:43:39.108Z,41.83
2023-04-27T08:44:39.118Z,30.10
2023-04-27T08:45:39.233Z,0.00
2023-04-27T08:46:39.309Z,0.00
2023-04-27T08:47:43.341Z,17.17
2023-04-27T08:48:39.358Z,17.55
2023-04-27T08:49:39.263Z,20.69
2023-04-27T08:50:40.192Z,24.56
2023-04-27T08:51:39.218Z,25.50
2023-04-27T08:52:39.400Z,30.65
2023-04-27T08:53:39.294Z,37.91
2023-04-27T08:54:39.494Z,51.72
2023-04-27T08:55:39.159Z,60.12
2023-04-27T08:56:39.170Z,37.63
2023-04-27T08:57:39.125Z,5.48
2023-04-27T08:58:39.134Z,7.13
2023-04-27T08:59:39.353Z,25.79
2023-04-27T09:00:39.146Z,36.78
2023-04-27T09:01:39.209Z,37.25
2023-04-27T09:02:39.310Z,22.12
2023-04-27T09:03:39.852Z,27.94
2023-04-27T09:04:39.263Z,41.41
2023-04-27T09:05:44.104Z,41.99
2023-04-27T09:06:40.169Z,42.20
2023-04-27T09:07:46.713Z,44.07
2023-04-27T09:08:39.051Z,42.56
2023-04-27T09:09:39.046Z,43.16
2023-04-27T09:10:39.226Z,44.37
2023-04-27T09:11:39.070Z,50.07
2023-04-27T09:12:39.012Z,70.47
2023-04-27T09:13:39.068Z,53.98
2023-04-27T09:14:39.038Z,50.37
2023-04-27T09:15:38.991Z,61.12
2023-04-27T09:16:39.220Z,79.01
2023-04-27T09:17:39.261Z,86.25
2023-04-27T09:18:38.991Z,71.19
2023-04-27T09:19:39.058Z,68.72
2023-04-27T09:20:38.977Z,57.74
2023-04-27T09:21:38.980Z,51.20
2023-04-27T09:22:38.965Z,51.27
2023-04-27T09:23:38.979Z,40.88
2023-04-27T09:24:39.087Z,39.95
2023-04-27T09:25:39.020Z,41.15
2023-04-27T09:26:38.908Z,33.95
2023-04-27T09:27:38.969Z,48.29
2023-04-27T09:28:39.082Z,52.88
2023-04-27T09:29:39.139Z,55.25
2023-04-27T09:30:39.257Z,43.40
2023-04-27T09:31:39.223Z,43.23
2023-04-27T09:32:39.178Z,46.09
2023-04-27T09:33:39.184Z,43.80
2023-04-27T09:34:39.264Z,25.11
2023-04-27T09:35:39.798Z,16.57
2023-04-27T09:36:39.270Z,30.55
2023-04-27T09:37:41.256Z,23.19
2023-04-27T09:38:39.396Z,29.17
2023-04-27T09:39:39.401Z,44.16
2023-04-27T09:41:06.763Z,25.00
2023-04-27T09:42:05.834Z,25.00
2023-04-27T09:43:05.747Z,25.00
2023-04-27T09:44:05.885Z,25.00
2023-04-27T09:45:06.176Z,25.00
2023-04-27T09:46:06.100Z,26.14
2023-04-27T09:47:05.765Z,52.36
2023-04-27T09:48:06.192Z,5.39
2023-04-27T09:49:05.698Z,72.31
2023-04-27T09:50:05.699Z,74.20
2023-04-27T09:51:06.184Z,124.99
2023-04-27T09:52:05.645Z,162.71
2023-04-27T09:53:05.634Z,65.01
2023-04-27T09:54:05.728Z,5.00
2023-04-27T09:55:05.617Z,0.00
2023-04-27T09:56:05.943Z,0.00
2023-04-27T09:57:05.631Z,0.00
2023-04-27T09:58:05.594Z,55.29
2023-04-27T09:59:05.661Z,99.42
2023-04-27T10:00:06.075Z,112.00
2023-04-27T10:01:06.055Z,85.41
2023-04-27T10:02:16.984Z,106.85
2023-04-27T10:03:06.647Z,109.71
2023-04-27T10:04:05.819Z,117.27
2023-04-27T10:05:05.647Z,133.86
2023-04-27T10:06:05.730Z,142.22
2023-04-27T10:07:05.587Z,57.28
2023-04-27T10:08:05.530Z,45.10
2023-04-27T10:09:05.626Z,23.32
2023-04-27T10:10:05.944Z,80.34
2023-04-27T10:11:06.007Z,82.28
2023-04-27T10:12:05.859Z,91.24
2023-04-27T10:13:05.543Z,25.00
2023-04-27T10:14:06.065Z,35.83
2023-04-27T10:15:05.583Z,114.56
2023-04-27T10:16:06.073Z,98.97
2023-04-27T10:17:06.617Z,51.35
2023-04-27T10:18:05.841Z,150.43
2023-04-27T10:19:05.793Z,63.36
2023-04-27T10:20:05.957Z,181.37
2023-04-27T10:21:05.921Z,248.52
2023-04-27T10:22:06.007Z,127.84
2023-04-27T10:23:05.909Z,125.63
2023-04-27T10:24:06.054Z,182.20
2023-04-27T10:25:05.951Z,162.18
2023-04-27T10:26:06.032Z,116.74
2023-04-27T10:27:05.938Z,114.53
2023-04-27T10:28:06.152Z,75.29
2023-04-27T10:29:06.027Z,105.11
2023-04-27T10:30:06.480Z,115.39
2023-04-27T10:31:06.244Z,82.17
2023-04-27T10:32:06.146Z,135.38
2023-04-27T10:33:06.347Z,204.30
2023-04-27T10:34:06.208Z,156.05
2023-04-27T10:35:06.243Z,123.37
2023-04-27T10:36:06.538Z,84.58
2023-04-27T10:37:06.641Z,74.33
2023-04-27T10:38:06.457Z,64.69
2023-04-27T10:39:06.464Z,122.00
2023-04-27T10:40:06.465Z,220.27
2023-04-27T10:41:06.515Z,199.76
2023-04-27T10:42:06.379Z,213.19
2023-04-27T10:43:06.557Z,197.08
2023-04-27T10:44:06.489Z,176.28
2023-04-27T10:45:06.488Z,134.23
2023-04-27T10:46:06.993Z,123.36
2023-04-27T10:47:06.512Z,131.47
2023-04-27T10:48:06.576Z,197.91
2023-04-27T10:49:06.625Z,246.80
2023-04-27T10:50:06.578Z,234.89
2023-04-27T10:51:06.610Z,252.69
2023-04-27T10:52:06.547Z,197.97
2023-04-27T10:53:06.574Z,197.43
2023-04-27T10:54:06.667Z,168.20
2023-04-27T10:55:06.654Z,185.11
2023-04-27T10:56:06.902Z,220.47
2023-04-27T10:57:06.880Z,258.77
2023-04-27T10:58:06.803Z,177.56
2023-04-27T10:59:06.884Z,176.29
2023-04-27T11:00:06.906Z,169.84
2023-04-27T11:01:07.022Z,159.26
2023-04-27T11:02:06.980Z,176.95
2023-04-27T11:03:07.100Z,174.18
2023-04-27T11:04:07.091Z,175.20
2023-04-27T11:05:07.161Z,122.14
2023-04-27T11:06:07.186Z,109.33
2023-04-27T11:07:07.793Z,128.57
2023-04-27T11:08:07.243Z,152.68
2023-04-27T11:09:07.432Z,143.55
2023-04-27T11:10:07.318Z,112.36
2023-04-27T11:11:08.320Z,139.72
2023-04-27T11:12:07.429Z,113.62
2023-04-27T11:13:07.383Z,133.17
2023-04-27T11:14:07.457Z,144.01
2023-04-27T11:15:07.435Z,176.69
2023-04-27T11:16:07.549Z,202.32
2023-04-27T11:17:07.539Z,170.50
2023-04-27T11:18:07.583Z,171.20
2023-04-27T11:19:07.592Z,160.76
2023-04-27T11:20:07.562Z,176.87
2023-04-27T11:21:08.038Z,236.64
2023-04-27T11:22:07.947Z,209.63
2023-04-27T11:23:07.689Z,193.23
2023-04-27T11:24:07.803Z,251.14
2023-04-27T11:25:07.841Z,265.15
2023-04-27T11:26:08.834Z,202.14
2023-04-27T11:27:07.982Z,198.93
2023-04-27T11:28:07.870Z,210.66
2023-04-27T11:29:07.832Z,228.07
2023-04-27T11:30:08.521Z,209.78
2023-04-27T11:31:08.916Z,205.80
2023-04-27T11:32:10.118Z,207.20
2023-04-27T11:33:08.074Z,191.33
2023-04-27T11:34:08.430Z,196.60
2023-04-27T11:35:08.191Z,215.80
2023-04-27T11:36:07.931Z,195.05
2023-04-27T11:37:17.523Z,218.57
2023-04-27T11:38:09.343Z,141.46
2023-04-27T11:39:08.001Z,96.35
2023-04-27T11:40:07.975Z,109.07
2023-04-27T11:41:08.252Z,117.64
2023-04-27T11:42:07.979Z,160.24
2023-04-27T11:43:08.004Z,130.50
2023-04-27T11:44:08.325Z,178.71
2023-04-27T11:45:08.443Z,157.56
2023-04-27T11:46:08.668Z,191.99
2023-04-27T11:47:08.464Z,182.60
2023-04-27T11:48:08.013Z,189.21
2023-04-27T11:49:07.921Z,155.93
2023-04-27T11:50:07.911Z,78.83
2023-04-27T11:51:07.971Z,106.40
2023-04-27T11:52:07.876Z,106.88
2023-04-27T11:53:07.852Z,94.88
2023-04-27T11:54:07.939Z,40.23
2023-04-27T11:55:07.875Z,39.29
2023-04-27T11:56:07.915Z,66.71
2023-04-27T11:57:07.976Z,146.29
2023-04-27T11:58:07.862Z,112.23
2023-04-27T11:59:07.979Z,163.84
2023-04-27T12:00:08.109Z,126.25
2023-04-27T12:01:07.836Z,88.89
2023-04-27T12:02:07.952Z,100.63
2023-04-27T12:03:08.032Z,88.75
2023-04-27T12:04:08.061Z,98.13
2023-04-27T12:05:08.099Z,83.82
2023-04-27T12:06:27.749Z,111.69
2023-04-27T12:07:09.369Z,90.25
2023-04-27T12:08:07.868Z,102.55
2023-04-27T12:09:07.863Z,71.10
2023-04-27T12:10:07.871Z,19.98
2023-04-27T12:11:07.865Z,1.77
2023-04-27T12:12:09.123Z,36.85
2023-04-27T12:13:07.805Z,36.65
2023-04-27T12:14:07.808Z,57.54
2023-04-27T12:15:07.832Z,82.88
2023-04-27T12:16:07.799Z,131.24
2023-04-27T12:17:08.325Z,113.94
2023-04-27T12:18:08.126Z,120.52
2023-04-27T12:19:07.826Z,110.83
2023-04-27T12:20:07.914Z,124.39
2023-04-27T12:21:08.445Z,132.24
2023-04-27T12:22:07.947Z,45.19
2023-04-27T12:23:07.952Z,39.06
2023-04-27T12:24:07.960Z,14.31
2023-04-27T12:25:07.977Z,27.56
2023-04-27T12:26:08.076Z,64.68
2023-04-27T12:27:08.063Z,78.10
2023-04-27T12:28:08.144Z,58.73
2023-04-27T12:29:08.417Z,83.08
2023-04-27T12:30:08.215Z,94.43
2023-04-27T12:31:08.251Z,85.18
2023-04-27T12:32:08.184Z,117.47
2023-04-27T12:33:08.280Z,180.29
2023-04-27T12:34:08.230Z,201.25
2023-04-27T12:35:08.308Z,201.06
2023-04-27T12:36:08.349Z,115.88
2023-04-27T12:37:08.353Z,103.20
2023-04-27T12:38:08.650Z,116.79
2023-04-27T12:39:08.390Z,147.64
2023-04-27T12:40:08.469Z,131.25
2023-04-27T12:41:08.476Z,181.94
2023-04-27T12:42:08.501Z,169.17
2023-04-27T12:43:08.544Z,143.91